Time;durP1;ratioP1;P1;durP2;ratioP2;P2;SDS_P1;SDS_P2;PMS_P1;PMS_P2;Temp;Humidity;BMP_temperature;BMP_pressure;BME280_temperature;BME280_humidity;BME280_pressure;Samples;Min_cycle;Max_cycle;Signal;HPM_P1;HPM_P2
2022/03/17 00:00:25;;;;;;;;;30.75;26.25;;;;;;;;5139853;27;11376;-72
2022/03/17 00:02:50;;;;;;;;;25.75;22.75;;;;;;;;5139263;27;13245;-72
2022/03/17 00:05:16;;;;;;;;;19.50;16.50;;;;;;;;5121228;27;13357;-72
2022/03/17 00:07:42;;;;;;;;;25.75;24.25;;;;;;;;5139927;27;13371;-72
2022/03/17 00:10:09;;;;;;;;;22.00;21.25;;;;;;;;5139977;27;13388;-73
2022/03/17 00:12:35;;;;;;;;;8.50;3.25;;;;;;;;5138975;27;11616;-73
2022/03/17 00:15:01;;;;;;;;;27.00;24.33;;;;;;;;5138790;27;22438;-72
2022/03/17 00:17:26;;;;;;;;;25.25;21.50;;;;;;;;5139687;27;22674;-71
2022/03/17 00:19:52;;;;;;;;;28.25;26.00;;;;;;;;5139592;27;11953;-72
2022/03/17 00:22:18;;;;;;;;;21.75;18.75;;;;;;;;5139798;27;11902;-74
2022/03/17 00:24:43;;;;;;;;;23.00;21.25;;;;;;;;5139334;27;12358;-72
2022/03/17 00:27:09;;;;;;;;;26.50;23.25;;;;;;;;5139239;27;11670;-72
2022/03/17 00:29:35;;;;;;;;;20.25;19.00;;;;;;;;5138900;27;10386;-73
2022/03/17 00:32:01;;;;;;;;;24.25;23.00;;;;;;;;5138910;27;12948;-73
2022/03/17 00:34:26;;;;;;;;;22.00;22.00;;;;;;;;5139921;27;11533;-73
2022/03/17 00:36:51;;;;;;;;;23.50;16.25;;;;;;;;5139761;27;10361;-73
2022/03/17 00:39:17;;;;;;;;;23.25;19.00;;;;;;;;5139355;27;12489;-72
2022/03/17 00:41:43;;;;;;;;;21.75;21.00;;;;;;;;5139431;27;10352;-73
2022/03/17 00:44:09;;;;;;;;;17.75;17.50;;;;;;;;5120440;27;12842;-73
2022/03/17 00:46:34;;;;;;;;;21.00;18.75;;;;;;;;5138778;27;13289;-72
2022/03/17 00:48:59;;;;;;;;;22.25;19.25;;;;;;;;5138978;27;14470;-72
2022/03/17 00:51:25;;;;;;;;;20.75;18.00;;;;;;;;5120054;27;13147;-73
2022/03/17 00:53:50;;;;;;;;;19.00;18.00;;;;;;;;5138991;27;11383;-72
2022/03/17 00:56:15;;;;;;;;;19.75;16.75;;;;;;;;5120771;27;10164;-71
2022/03/17 00:58:45;;;;;;;;;22.75;20.50;;;;;;;;5139624;27;10478;-71
2022/03/17 01:01:11;;;;;;;;;19.00;17.50;;;;;;;;5139095;27;15144;-73
2022/03/17 01:03:36;;;;;;;;;22.50;18.00;;;;;;;;5120719;27;12269;-73
2022/03/17 01:06:01;;;;;;;;;17.50;17.50;;;;;;;;5139111;27;13221;-73
2022/03/17 01:08:27;;;;;;;;;20.75;19.25;;;;;;;;5138928;27;13530;-73
2022/03/17 01:10:52;;;;;;;;;27.00;19.50;;;;;;;;5138815;27;14583;-72
2022/03/17 01:13:18;;;;;;;;;21.50;18.00;;;;;;;;5120655;27;12745;-72
2022/03/17 01:15:43;;;;;;;;;25.25;21.75;;;;;;;;5142491;27;11871;-72
2022/03/17 01:18:08;;;;;;;;;20.75;19.50;;;;;;;;5142410;27;12430;-73
2022/03/17 01:20:34;;;;;;;;;20.50;18.50;;;;;;;;5142153;27;12248;-72
2022/03/17 01:23:00;;;;;;;;;18.00;17.00;;;;;;;;5142103;27;10954;-73
2022/03/17 01:25:25;;;;;;;;;18.00;15.75;;;;;;;;5143143;27;14381;-73
2022/03/17 01:27:50;;;;;;;;;25.50;18.00;;;;;;;;5142536;27;11483;-73
2022/03/17 01:30:17;;;;;;;;;25.00;20.75;;;;;;;;5142370;27;14405;-72
2022/03/17 01:32:42;;;;;;;;;19.25;19.25;;;;;;;;5141991;27;13812;-72
2022/03/17 01:35:08;;;;;;;;;20.25;16.50;;;;;;;;5141789;27;12433;-72
2022/03/17 01:37:34;;;;;;;;;21.50;17.00;;;;;;;;5141466;27;13466;-72
2022/03/17 01:39:59;;;;;;;;;18.50;17.25;;;;;;;;5142651;27;11624;-73
2022/03/17 01:42:25;;;;;;;;;24.25;19.50;;;;;;;;5123767;27;13633;-74
2022/03/17 01:44:50;;;;;;;;;18.00;16.25;;;;;;;;5142474;27;13305;-73
2022/03/17 01:47:28;;;;;;;;;17.25;15.25;;;;;;;;5141652;27;13849;-74
2022/03/17 01:49:57;;;;;;;;;19.25;17.00;;;;;;;;5141890;27;10420;-72
2022/03/17 01:52:23;;;;;;;;;12.75;12.50;;;;;;;;5142092;27;11502;-74
2022/03/17 01:54:48;;;;;;;;;19.25;15.75;;;;;;;;5141801;27;11530;-72
2022/03/17 01:57:13;;;;;;;;;19.50;15.50;;;;;;;;5141372;27;11526;-73
2022/03/17 01:59:40;;;;;;;;;15.75;12.25;;;;;;;;5141668;27;8778;-73
2022/03/17 02:02:06;;;;;;;;;17.25;17.00;;;;;;;;5142451;27;11460;-73
2022/03/17 02:04:31;;;;;;;;;21.00;15.25;;;;;;;;5141784;27;11951;-73
2022/03/17 02:06:57;;;;;;;;;14.00;14.00;;;;;;;;5141702;27;13267;-72
2022/03/17 02:09:26;;;;;;;;;17.25;16.50;;;;;;;;5141648;27;13307;-73
2022/03/17 02:14:58;;;;;;;;;13.25;13.25;;;;;;;;5125473;27;11566;-76
2022/03/17 02:17:25;;;;;;;;;14.25;11.75;;;;;;;;5141096;27;11459;-73
2022/03/17 02:19:51;;;;;;;;;17.75;16.25;;;;;;;;5141680;27;11422;-76
2022/03/17 02:22:18;;;;;;;;;13.25;13.00;;;;;;;;5141014;27;11569;-74
2022/03/17 02:27:29;;;;;;;;;23.75;15.75;;;;;;;;5140608;27;12425;-73
2022/03/17 02:29:55;;;;;;;;;17.50;16.00;;;;;;;;5141959;27;12517;-71
2022/03/17 02:32:20;;;;;;;;;17.00;13.50;;;;;;;;5141215;27;13250;-72
2022/03/17 02:34:46;;;;;;;;;14.75;12.00;;;;;;;;5141752;27;10371;-72
2022/03/17 02:37:15;;;;;;;;;16.00;13.25;;;;;;;;5141361;27;11453;-73
2022/03/17 02:39:41;;;;;;;;;18.50;16.75;;;;;;;;5140928;27;11479;-72
2022/03/17 02:42:06;;;;;;;;;16.25;16.00;;;;;;;;5141225;27;11528;-72
2022/03/17 02:44:32;;;;;;;;;16.75;14.00;;;;;;;;5141134;27;12315;-72
2022/03/17 02:46:57;;;;;;;;;16.00;14.00;;;;;;;;5140261;27;9832;-73
2022/03/17 02:49:23;;;;;;;;;13.50;9.50;;;;;;;;5140368;27;11461;-72
2022/03/17 02:51:49;;;;;;;;;15.50;12.75;;;;;;;;5140944;27;21600;-72
2022/03/17 02:54:14;;;;;;;;;13.25;11.50;;;;;;;;5141083;27;23059;-72
2022/03/17 02:56:40;;;;;;;;;18.67;16.67;;;;;;;;5141025;27;11768;-73
2022/03/17 02:59:05;;;;;;;;;17.00;16.00;;;;;;;;5141036;27;11707;-72
2022/03/17 03:01:30;;;;;;;;;14.00;13.25;;;;;;;;5140934;27;11490;-73
2022/03/17 03:03:55;;;;;;;;;14.67;9.00;;;;;;;;5140896;27;11517;-73
2022/03/17 03:06:21;;;;;;;;;17.50;14.00;;;;;;;;5140006;27;21458;-72
2022/03/17 03:08:47;;;;;;;;;14.50;12.50;;;;;;;;5140122;27;21520;-72
2022/03/17 03:11:13;;;;;;;;;11.00;10.25;;;;;;;;5121553;27;12103;-72
2022/03/17 03:13:40;;;;;;;;;21.67;16.00;;;;;;;;5141004;27;11419;-73
2022/03/17 03:16:06;;;;;;;;;19.00;16.33;;;;;;;;5140375;27;13281;-72
2022/03/17 03:18:31;;;;;;;;;18.67;14.00;;;;;;;;5140151;27;13215;-73
2022/03/17 03:20:56;;;;;;;;;15.50;13.25;;;;;;;;5140304;27;11600;-73
2022/03/17 03:23:21;;;;;;;;;22.67;16.67;;;;;;;;5140006;27;11620;-72
2022/03/17 03:25:47;;;;;;;;;14.50;12.50;;;;;;;;5139625;27;13592;-71
2022/03/17 03:28:12;;;;;;;;;16.00;16.00;;;;;;;;5139804;27;13464;-72
2022/03/17 03:30:37;;;;;;;;;18.67;16.00;;;;;;;;5140967;27;11744;-72
2022/03/17 03:33:05;;;;;;;;;15.33;12.33;;;;;;;;5121993;27;9500;-72
2022/03/17 03:38:14;;;;;;;;;19.33;17.67;;;;;;;;5140137;27;14217;-73
2022/03/17 03:40:40;;;;;;;;;18.33;15.33;;;;;;;;5140089;27;13199;-72
2022/03/17 03:43:05;;;;;;;;;17.33;14.33;;;;;;;;5140074;27;12080;-72
2022/03/17 03:45:31;;;;;;;;;17.00;17.00;;;;;;;;5140272;27;10448;-72
2022/03/17 03:47:56;;;;;;;;;17.67;15.33;;;;;;;;5139605;27;10326;-71
2022/03/17 03:50:31;;;;;;;;;19.33;17.67;;;;;;;;5140075;27;11551;-72
2022/03/17 03:52:56;;;;;;;;;17.67;16.00;;;;;;;;5139833;27;11495;-73
2022/03/17 03:55:21;;;;;;;;;20.33;17.00;;;;;;;;5139546;27;11965;-72
2022/03/17 03:57:47;;;;;;;;;17.33;15.00;;;;;;;;5138959;27;12267;-71
2022/03/17 04:02:57;;;;;;;;;17.00;16.00;;;;;;;;5139484;27;12264;-72
2022/03/17 04:05:29;;;;;;;;;19.67;16.67;;;;;;;;5140059;27;12258;-72
2022/03/17 04:07:57;;;;;;;;;16.00;15.33;;;;;;;;5121232;27;15042;-74
2022/03/17 04:10:28;;;;;;;;;19.67;16.33;;;;;;;;5139877;27;11501;-72
2022/03/17 04:12:54;;;;;;;;;17.33;15.33;;;;;;;;5139913;27;11510;-73
2022/03/17 04:15:20;;;;;;;;;15.67;13.00;;;;;;;;5139898;27;10610;-73
2022/03/17 04:17:45;;;;;;;;;15.67;13.67;;;;;;;;5139174;27;11553;-73
2022/03/17 04:20:11;;;;;;;;;23.67;16.00;;;;;;;;5139353;27;8790;-72
2022/03/17 04:22:37;;;;;;;;;20.00;20.00;;;;;;;;5139604;27;13365;-71
2022/03/17 04:25:02;;;;;;;;;17.67;15.67;;;;;;;;5140203;27;11461;-71
2022/03/17 04:27:27;;;;;;;;;20.33;19.00;;;;;;;;5139452;27;14798;-72
2022/03/17 04:29:54;;;;;;;;;23.67;17.67;;;;;;;;5139854;27;13469;-72
2022/03/17 04:32:20;;;;;;;;;22.00;19.00;;;;;;;;5138944;27;11816;-73
2022/03/17 04:34:45;;;;;;;;;16.33;15.00;;;;;;;;5139339;27;11622;-72
2022/03/17 04:37:10;;;;;;;;;20.67;15.00;;;;;;;;5138664;27;12564;-72
2022/03/17 04:39:35;;;;;;;;;19.00;16.67;;;;;;;;5139463;27;10264;-72
2022/03/17 04:42:01;;;;;;;;;19.67;15.00;;;;;;;;5138979;27;13219;-72
2022/03/17 04:44:26;;;;;;;;;17.00;13.67;;;;;;;;5120171;27;12763;-73
2022/03/17 04:46:51;;;;;;;;;18.00;16.67;;;;;;;;5139949;27;11382;-72
2022/03/17 04:49:17;;;;;;;;;15.33;13.67;;;;;;;;5142138;27;8920;-73
2022/03/17 04:51:42;;;;;;;;;19.00;18.00;;;;;;;;5143559;27;10392;-72
2022/03/17 04:54:07;;;;;;;;;19.67;16.00;;;;;;;;5148551;27;11418;-70
2022/03/17 04:56:33;;;;;;;;;17.33;16.00;;;;;;;;5164301;27;10036;-70
2022/03/17 04:58:58;;;;;;;;;15.00;15.00;;;;;;;;5164161;27;9456;-70
2022/03/17 05:01:23;;;;;;;;;16.67;16.00;;;;;;;;5164072;27;10310;-71
2022/03/17 05:03:49;;;;;;;;;15.00;12.33;;;;;;;;5145208;27;11044;-72
2022/03/17 05:06:15;;;;;;;;;19.00;16.00;;;;;;;;5163660;27;11433;-73
2022/03/17 05:08:41;;;;;;;;;17.33;14.67;;;;;;;;5163841;27;11521;-71
2022/03/17 05:11:10;;;;;;;;;20.33;13.33;;;;;;;;5163565;27;11418;-71
2022/03/17 05:13:36;;;;;;;;;18.33;15.67;;;;;;;;5163434;27;13757;-72
2022/03/17 05:16:02;;;;;;;;;16.00;15.00;;;;;;;;5163056;27;13566;-72
2022/03/17 05:18:28;;;;;;;;;18.67;16.00;;;;;;;;5163746;27;11463;-73
2022/03/17 05:20:53;;;;;;;;;22.67;15.67;;;;;;;;5164016;27;10342;-75
2022/03/17 05:23:19;;;;;;;;;19.33;15.67;;;;;;;;5163538;27;13428;-73
2022/03/17 05:25:45;;;;;;;;;20.33;18.00;;;;;;;;5163385;27;10667;-76
2022/03/17 05:28:11;;;;;;;;;11.67;5.00;;;;;;;;5162008;27;13498;-73
2022/03/17 05:30:37;;;;;;;;;16.67;13.33;;;;;;;;5158969;27;22865;-74
2022/03/17 05:33:02;;;;;;;;;19.00;12.67;;;;;;;;5160693;27;23143;-74
2022/03/17 05:35:28;;;;;;;;;17.67;15.33;;;;;;;;5142219;27;13796;-72
2022/03/17 05:37:53;;;;;;;;;17.33;15.00;;;;;;;;5162591;27;12005;-72
2022/03/17 05:40:18;;;;;;;;;15.67;15.67;;;;;;;;5162540;27;8806;-73
2022/03/17 05:42:45;;;;;;;;;15.00;14.33;;;;;;;;5162244;27;12493;-73
2022/03/17 05:45:11;;;;;;;;;19.67;15.00;;;;;;;;5161860;27;10429;-73
2022/03/17 05:47:38;;;;;;;;;16.00;15.00;;;;;;;;5163027;27;11821;-73
2022/03/17 05:50:04;;;;;;;;;16.00;16.00;;;;;;;;5163512;27;9990;-73
2022/03/17 05:52:30;;;;;;;;;20.33;15.67;;;;;;;;5163091;27;8874;-74
2022/03/17 05:54:55;;;;;;;;;17.33;14.33;;;;;;;;5161407;27;13243;-73
2022/03/17 05:57:21;;;;;;;;;17.33;15.33;;;;;;;;5141447;27;16774;-74
2022/03/17 05:59:46;;;;;;;;;21.00;15.67;;;;;;;;5160998;27;8810;-73
2022/03/17 06:02:11;;;;;;;;;23.00;18.00;;;;;;;;5161689;27;14988;-74
2022/03/17 06:04:38;;;;;;;;;19.00;15.33;;;;;;;;5161668;27;11763;-75
2022/03/17 06:07:04;;;;;;;;;13.33;13.33;;;;;;;;5143176;27;15037;-74
2022/03/17 06:09:29;;;;;;;;;17.00;12.00;;;;;;;;5160741;27;10373;-72
2022/03/17 06:11:57;;;;;;;;;14.33;12.00;;;;;;;;5160886;27;12996;-73
2022/03/17 06:14:23;;;;;;;;;17.33;16.00;;;;;;;;5142769;27;11041;-75
2022/03/17 06:16:48;;;;;;;;;18.00;18.00;;;;;;;;5142258;27;10005;-73
2022/03/17 06:19:13;;;;;;;;;11.00;11.00;;;;;;;;5160917;27;11608;-74
2022/03/17 06:21:39;;;;;;;;;17.00;15.00;;;;;;;;5160810;27;8823;-72
2022/03/17 06:24:04;;;;;;;;;22.00;18.33;;;;;;;;5161200;27;8887;-73
2022/03/17 06:26:29;;;;;;;;;13.00;11.33;;;;;;;;5160468;27;13251;-73
2022/03/17 06:28:55;;;;;;;;;20.67;18.33;;;;;;;;5160575;27;10513;-73
2022/03/17 06:31:20;;;;;;;;;13.33;13.33;;;;;;;;5161112;27;12216;-71
2022/03/17 06:33:45;;;;;;;;;15.00;15.00;;;;;;;;5160691;27;12290;-71
2022/03/17 06:36:11;;;;;;;;;15.00;12.00;;;;;;;;5161049;27;12767;-75
2022/03/17 06:38:36;;;;;;;;;19.00;16.33;;;;;;;;5159264;27;8827;-74
2022/03/17 06:41:01;;;;;;;;;12.67;7.00;;;;;;;;5162730;27;11450;-74
2022/03/17 06:43:27;;;;;;;;;22.00;16.00;;;;;;;;5162418;27;21632;-74
2022/03/17 06:45:53;;;;;;;;;21.33;17.33;;;;;;;;5161364;27;22582;-73
2022/03/17 06:48:18;;;;;;;;;21.33;19.00;;;;;;;;5142908;27;13423;-73
2022/03/17 06:50:43;;;;;;;;;19.00;14.67;;;;;;;;5162258;27;9309;-71
2022/03/17 06:53:08;;;;;;;;;18.67;18.67;;;;;;;;5161332;27;13876;-73
2022/03/17 06:55:34;;;;;;;;;23.33;18.00;;;;;;;;5161976;27;10317;-73
2022/03/17 06:58:00;;;;;;;;;23.00;18.00;;;;;;;;5158361;27;13214;-75
2022/03/17 07:00:25;;;;;;;;;16.00;16.00;;;;;;;;5158332;27;9634;-77
2022/03/17 07:02:50;;;;;;;;;22.33;18.00;;;;;;;;5160075;27;10887;-76
2022/03/17 07:05:16;;;;;;;;;16.67;16.00;;;;;;;;5160857;27;12475;-73
2022/03/17 07:07:42;;;;;;;;;24.33;21.00;;;;;;;;5160801;27;12195;-72
2022/03/17 07:10:08;;;;;;;;;22.33;22.00;;;;;;;;5159966;27;12709;-75
2022/03/17 07:12:34;;;;;;;;;20.33;18.00;;;;;;;;5159376;27;8804;-74
2022/03/17 07:14:59;;;;;;;;;27.33;22.00;;;;;;;;5159725;27;9614;-73
2022/03/17 07:17:26;;;;;;;;;26.33;20.33;;;;;;;;5159876;27;9774;-73
2022/03/17 07:22:23;;;;;;;;;20.00;16.00;;;;;;;;5160192;27;12368;-73
2022/03/17 07:24:49;;;;;;;;;24.00;22.00;;;;;;;;5137755;27;11834;-74
2022/03/17 07:27:14;;;;;;;;;20.67;18.00;;;;;;;;5159105;27;9549;-73
2022/03/17 07:29:39;;;;;;;;;23.33;16.33;;;;;;;;5159253;27;11493;-73
2022/03/17 07:32:05;;;;;;;;;26.00;22.67;;;;;;;;5140545;27;12015;-72
2022/03/17 07:34:30;;;;;;;;;22.67;21.33;;;;;;;;5141305;27;12576;-71
2022/03/17 07:36:55;;;;;;;;;23.67;22.33;;;;;;;;5160757;27;11528;-74
2022/03/17 07:39:20;;;;;;;;;22.00;20.00;;;;;;;;5161182;27;10121;-72
2022/03/17 07:41:46;;;;;;;;;20.00;18.33;;;;;;;;5161285;27;11544;-73
2022/03/17 07:44:12;;;;;;;;;18.67;18.67;;;;;;;;5161320;27;12688;-73
2022/03/17 07:46:37;;;;;;;;;20.33;18.33;;;;;;;;5160363;27;14346;-74
2022/03/17 07:49:03;;;;;;;;;17.00;15.00;;;;;;;;5160853;27;13265;-74
2022/03/17 07:51:30;;;;;;;;;20.00;16.33;;;;;;;;5160506;27;13197;-73
2022/03/17 07:53:55;;;;;;;;;20.33;16.33;;;;;;;;5160370;27;13486;-72
2022/03/17 07:56:20;;;;;;;;;12.50;9.75;;;;;;;;5160285;27;11486;-72
2022/03/17 07:58:46;;;;;;;;;11.00;10.00;;;;;;;;5160011;27;23541;-72
2022/03/17 08:01:11;;;;;;;;;11.75;9.00;;;;;;;;5140568;27;23618;-74
2022/03/17 08:03:38;;;;;;;;;13.75;10.50;;;;;;;;5159954;27;22551;-73
2022/03/17 08:06:04;;;;;;;;;10.00;10.00;;;;;;;;5159636;27;22018;-73
2022/03/17 08:08:29;;;;;;;;;11.50;10.75;;;;;;;;5159601;27;11676;-73
2022/03/17 08:10:57;;;;;;;;;12.75;10.75;;;;;;;;5160376;27;11663;-73
2022/03/17 08:13:25;;;;;;;;;12.50;10.75;;;;;;;;5159763;27;9580;-73
2022/03/17 08:15:50;;;;;;;;;17.75;13.75;;;;;;;;5160518;27;12255;-73
2022/03/17 08:18:16;;;;;;;;;12.25;9.00;;;;;;;;5160642;27;11464;-72
2022/03/17 08:20:41;;;;;;;;;13.75;11.00;;;;;;;;5160056;27;22797;-75
2022/03/17 08:23:07;;;;;;;;;13.75;12.00;;;;;;;;5159964;27;21511;-73
2022/03/17 08:25:35;;;;;;;;;13.00;10.00;;;;;;;;5160412;27;8772;-73
2022/03/17 08:28:02;;;;;;;;;9.00;9.00;;;;;;;;5160579;27;9623;-74
2022/03/17 08:30:28;;;;;;;;;11.00;9.00;;;;;;;;5145493;27;23914;-74
2022/03/17 08:32:53;;;;;;;;;7.00;7.00;;;;;;;;5158915;27;16231;-74
2022/03/17 08:35:19;;;;;;;;;13.50;9.50;;;;;;;;5159421;27;21673;-74
2022/03/17 08:37:45;;;;;;;;;14.00;10.75;;;;;;;;5160311;27;21519;-74
2022/03/17 08:40:12;;;;;;;;;9.00;9.00;;;;;;;;5140969;27;22102;-73
2022/03/17 08:42:38;;;;;;;;;11.50;9.50;;;;;;;;5140700;27;25357;-73
2022/03/17 08:49:18;;;;;;;;;11.25;9.75;;;;;;;;5159194;27;21720;-73
2022/03/17 08:50:33;;;;;;;;;10.75;10.75;;;;;;;;5159085;27;21452;-73
2022/03/17 08:52:59;;;;;;;;;15.25;12.25;;;;;;;;5159065;27;11512;-73
2022/03/17 08:55:24;;;;;;;;;10.50;9.25;;;;;;;;5158634;27;10633;-73
2022/03/17 08:57:49;;;;;;;;;11.75;10.25;;;;;;;;5157138;27;21677;-73
2022/03/17 09:00:15;;;;;;;;;11.75;11.50;;;;;;;;5157894;27;21654;-74
2022/03/17 09:02:40;;;;;;;;;11.50;11.50;;;;;;;;5155873;27;9520;-73
2022/03/17 09:05:06;;;;;;;;;11.00;10.75;;;;;;;;5158786;27;8839;-74
2022/03/17 09:07:31;;;;;;;;;13.25;12.75;;;;;;;;5139186;27;10776;-73
2022/03/17 09:09:56;;;;;;;;;12.00;12.00;;;;;;;;5158062;27;10331;-74
2022/03/17 09:12:22;;;;;;;;;13.25;13.00;;;;;;;;5158308;27;11719;-74
2022/03/17 09:14:47;;;;;;;;;12.75;12.50;;;;;;;;5157944;27;10365;-74
2022/03/17 09:17:13;;;;;;;;;11.75;11.75;;;;;;;;5157597;27;11442;-74
2022/03/17 09:19:38;;;;;;;;;11.00;10.50;;;;;;;;5157709;27;11348;-74
2022/03/17 09:22:08;;;;;;;;;13.75;12.75;;;;;;;;5138564;27;10563;-73
2022/03/17 09:24:33;;;;;;;;;13.75;11.00;;;;;;;;5157829;27;11507;-73
2022/03/17 09:26:59;;;;;;;;;9.75;9.75;;;;;;;;5157245;27;11620;-73
2022/03/17 09:29:27;;;;;;;;;12.25;11.25;;;;;;;;5156702;27;22299;-72
2022/03/17 09:31:52;;;;;;;;;10.75;10.50;;;;;;;;5157010;27;22831;-74
2022/03/17 09:34:17;;;;;;;;;11.00;11.00;;;;;;;;5158561;27;11542;-74
2022/03/17 09:36:43;;;;;;;;;12.50;11.00;;;;;;;;5160976;27;11386;-73
2022/03/17 09:41:52;;;;;;;;;11.50;11.50;;;;;;;;5159256;27;8772;-73
2022/03/17 09:44:18;;;;;;;;;12.00;12.00;;;;;;;;5160942;27;11486;-74
2022/03/17 09:46:43;;;;;;;;;13.00;12.00;;;;;;;;5160670;27;11367;-73
2022/03/17 09:49:10;;;;;;;;;13.00;11.00;;;;;;;;5141869;27;8788;-75
2022/03/17 09:51:35;;;;;;;;;10.75;9.25;;;;;;;;5161366;27;8880;-75
2022/03/17 09:54:02;;;;;;;;;9.25;9.25;;;;;;;;5161264;27;21711;-77
2022/03/17 09:56:31;;;;;;;;;14.00;12.00;;;;;;;;5161908;27;17694;-75
2022/03/17 09:58:57;;;;;;;;;7.25;4.25;;;;;;;;5161731;27;22414;-75
2022/03/17 10:01:25;;;;;;;;;10.00;10.00;;;;;;;;5161760;27;23874;-78
2022/03/17 10:03:51;;;;;;;;;8.50;7.50;;;;;;;;5142606;27;23584;-74
2022/03/17 10:06:16;;;;;;;;;9.00;8.50;;;;;;;;5158461;27;22364;-74
2022/03/17 10:08:42;;;;;;;;;8.75;8.00;;;;;;;;5142875;27;12729;-75
2022/03/17 10:11:08;;;;;;;;;9.00;8.75;;;;;;;;5143414;27;13700;-75
2022/03/17 10:13:42;;;;;;;;;9.50;8.00;;;;;;;;5161482;27;11337;-80
2022/03/17 10:16:11;;;;;;;;;10.75;8.50;;;;;;;;5162129;27;8784;-74
2022/03/17 10:18:38;;;;;;;;;11.00;8.00;;;;;;;;5161673;27;21774;-75
2022/03/17 10:21:13;;;;;;;;;9.25;7.00;;;;;;;;5160779;27;11084;-74
2022/03/17 10:23:43;;;;;;;;;7.50;7.50;;;;;;;;5162360;27;22219;-75
2022/03/17 10:26:08;;;;;;;;;12.00;10.25;;;;;;;;5161900;27;11929;-74
2022/03/17 10:28:36;;;;;;;;;9.75;9.25;;;;;;;;5142787;27;22595;-72
2022/03/17 10:31:04;;;;;;;;;12.50;8.50;;;;;;;;5161254;27;22522;-73
2022/03/17 10:33:30;;;;;;;;;11.75;9.50;;;;;;;;5142960;27;21948;-73
2022/03/17 10:36:11;;;;;;;;;11.75;8.75;;;;;;;;5161641;27;10557;-72
2022/03/17 10:38:42;;;;;;;;;11.00;8.50;;;;;;;;5143097;27;9784;-74
2022/03/17 10:41:11;;;;;;;;;8.50;7.00;;;;;;;;5161689;27;10098;-73
2022/03/17 10:43:38;;;;;;;;;3.75;3.75;;;;;;;;5160863;27;21709;-73
2022/03/17 10:46:04;;;;;;;;;9.00;7.50;;;;;;;;5162654;27;11557;-73
2022/03/17 10:48:30;;;;;;;;;9.75;7.00;;;;;;;;5162428;27;11438;-72
2022/03/17 10:50:55;;;;;;;;;6.00;6.00;;;;;;;;5162097;27;10320;-73
2022/03/17 10:53:26;;;;;;;;;10.00;8.75;;;;;;;;5162238;27;10329;-73
2022/03/17 10:55:51;;;;;;;;;10.25;6.25;;;;;;;;5161398;27;21624;-73
2022/03/17 10:58:18;;;;;;;;;11.25;9.25;;;;;;;;5142911;27;12544;-73
2022/03/17 11:00:46;;;;;;;;;9.00;8.75;;;;;;;;5162560;27;8780;-72
2022/03/17 11:03:13;;;;;;;;;9.25;8.75;;;;;;;;5142427;27;24641;-74
2022/03/17 11:05:38;;;;;;;;;7.50;7.50;;;;;;;;5162272;27;10517;-74
2022/03/17 11:08:06;;;;;;;;;9.75;8.50;;;;;;;;5162393;27;11308;-73
2022/03/17 11:10:32;;;;;;;;;9.50;8.00;;;;;;;;5161227;27;10533;-72
2022/03/17 11:12:59;;;;;;;;;10.75;8.25;;;;;;;;5161313;27;10919;-73
2022/03/17 11:15:29;;;;;;;;;5.50;5.00;;;;;;;;5142689;27;24156;-73
2022/03/17 11:17:58;;;;;;;;;6.25;6.00;;;;;;;;5142451;27;23580;-73
2022/03/17 11:20:24;;;;;;;;;8.25;8.25;;;;;;;;5161584;27;10812;-73
2022/03/17 11:23:09;;;;;;;;;9.00;6.00;;;;;;;;5161590;27;11690;-72
2022/03/17 11:25:35;;;;;;;;;8.75;8.00;;;;;;;;5142647;27;13512;-73
2022/03/17 11:28:01;;;;;;;;;13.75;11.25;;;;;;;;5160359;27;11385;-74
2022/03/17 11:30:31;;;;;;;;;9.00;9.00;;;;;;;;5160462;27;22546;-73
2022/03/17 11:32:58;;;;;;;;;12.00;10.00;;;;;;;;5124538;27;22795;-74
2022/03/17 11:35:29;;;;;;;;;10.75;8.75;;;;;;;;5142288;27;22782;-73
2022/03/17 11:38:13;;;;;;;;;13.75;11.50;;;;;;;;5161000;27;23069;-73
2022/03/17 11:40:58;;;;;;;;;10.25;9.00;;;;;;;;5161130;27;23061;-73
2022/03/17 11:43:23;;;;;;;;;11.75;10.00;;;;;;;;5160600;27;23151;-72
2022/03/17 11:46:08;;;;;;;;;13.25;11.00;;;;;;;;5160892;27;21408;-72
2022/03/17 11:48:36;;;;;;;;;13.25;10.00;;;;;;;;5161296;27;9748;-73
2022/03/17 11:51:06;;;;;;;;;11.25;9.25;;;;;;;;5160995;27;11338;-73
2022/03/17 11:53:39;;;;;;;;;13.25;11.75;;;;;;;;5141760;27;23825;-72
2022/03/17 11:56:05;;;;;;;;;11.25;7.00;;;;;;;;5160586;27;22611;-74
2022/03/17 11:58:39;;;;;;;;;13.75;11.00;;;;;;;;5159968;27;21355;-73
2022/03/17 12:01:05;;;;;;;;;11.50;10.25;;;;;;;;5160801;27;22610;-72
2022/03/17 12:03:39;;;;;;;;;12.50;11.00;;;;;;;;5142309;27;11569;-72
2022/03/17 12:06:07;;;;;;;;;14.50;9.25;;;;;;;;5139828;27;11706;-72
2022/03/17 12:08:49;;;;;;;;;14.50;10.50;;;;;;;;5139905;27;22639;-71
2022/03/17 12:11:15;;;;;;;;;14.25;12.00;;;;;;;;5139565;27;17846;-72
2022/03/17 12:13:41;;;;;;;;;9.00;8.00;;;;;;;;5141841;27;11444;-71
2022/03/17 12:16:07;;;;;;;;;13.25;9.75;;;;;;;;5158064;27;22346;-71
2022/03/17 12:18:51;;;;;;;;;6.75;6.50;;;;;;;;5159275;27;22606;-72
2022/03/17 12:21:16;;;;;;;;;11.00;9.25;;;;;;;;5156536;27;21869;-73
2022/03/17 12:23:45;;;;;;;;;13.25;9.75;;;;;;;;5158659;27;21310;-72
2022/03/17 12:26:11;;;;;;;;;10.75;9.75;;;;;;;;5139618;27;13062;-74
2022/03/17 12:28:46;;;;;;;;;16.75;12.00;;;;;;;;5158679;27;11494;-72
2022/03/17 12:31:11;;;;;;;;;14.50;10.00;;;;;;;;5155862;27;21588;-72
2022/03/17 12:33:43;;;;;;;;;11.75;11.00;;;;;;;;5139794;27;11418;-71
2022/03/17 12:36:09;;;;;;;;;12.50;12.25;;;;;;;;5158332;27;10989;-72
2022/03/17 12:38:34;;;;;;;;;9.50;9.50;;;;;;;;5158914;27;11498;-71
2022/03/17 12:41:00;;;;;;;;;13.75;10.25;;;;;;;;5158413;27;22253;-71
2022/03/17 12:43:25;;;;;;;;;12.50;8.75;;;;;;;;5157907;27;22363;-72
2022/03/17 12:45:51;;;;;;;;;12.00;10.25;;;;;;;;5157907;27;21644;-71
2022/03/17 12:48:17;;;;;;;;;14.75;14.00;;;;;;;;5139752;27;23791;-72
2022/03/17 12:50:48;;;;;;;;;11.50;7.75;;;;;;;;5158725;27;11450;-73
2022/03/17 12:53:13;;;;;;;;;11.00;8.25;;;;;;;;5158805;27;21445;-72
2022/03/17 12:55:39;;;;;;;;;12.00;10.75;;;;;;;;5158577;27;11372;-72
2022/03/17 12:58:04;;;;;;;;;16.50;11.50;;;;;;;;5157882;27;22503;-72
2022/03/17 13:00:30;;;;;;;;;11.00;9.50;;;;;;;;5158783;27;12128;-73
2022/03/17 13:02:59;;;;;;;;;15.50;13.75;;;;;;;;5157463;27;22766;-72
2022/03/17 13:08:10;;;;;;;;;10.75;10.75;;;;;;;;5157302;27;12070;-72
2022/03/17 13:16:04;;;;;;;;;15.75;15.00;;;;;;;;5160179;27;11371;-73
2022/03/17 13:18:43;;;;;;;;;15.50;13.00;;;;;;;;5161851;27;11452;-73
2022/03/17 13:21:12;;;;;;;;;16.00;15.50;;;;;;;;5142924;27;11725;-73
2022/03/17 13:23:37;;;;;;;;;20.25;18.25;;;;;;;;5163238;27;11504;-72
2022/03/17 13:26:02;;;;;;;;;16.75;15.50;;;;;;;;5162094;27;13218;-73
2022/03/17 13:28:27;;;;;;;;;19.75;15.25;;;;;;;;5143179;27;16278;-74
2022/03/17 13:30:56;;;;;;;;;18.25;15.50;;;;;;;;5161765;27;11568;-74
2022/03/17 13:33:27;;;;;;;;;15.50;14.00;;;;;;;;5161964;27;11647;-74
2022/03/17 13:35:53;;;;;;;;;17.50;15.75;;;;;;;;5161680;27;12690;-74
2022/03/17 13:38:19;;;;;;;;;20.25;18.00;;;;;;;;5161571;27;11521;-73
2022/03/17 13:40:52;;;;;;;;;21.50;20.00;;;;;;;;5161832;27;13343;-74
2022/03/17 13:43:37;;;;;;;;;19.25;17.75;;;;;;;;5160087;27;11755;-75
2022/03/17 13:46:16;;;;;;;;;18.75;16.75;;;;;;;;5160598;27;13314;-73
2022/03/17 13:48:41;;;;;;;;;25.75;23.00;;;;;;;;5155816;27;11425;-73
2022/03/17 13:51:06;;;;;;;;;21.50;20.25;;;;;;;;5142494;27;16326;-73
2022/03/17 13:53:34;;;;;;;;;22.00;19.25;;;;;;;;5161487;27;11383;-74
2022/03/17 13:56:02;;;;;;;;;20.00;19.50;;;;;;;;5161195;27;11724;-73
2022/03/17 13:58:29;;;;;;;;;22.50;21.50;;;;;;;;5142258;27;13657;-72
2022/03/17 14:01:07;;;;;;;;;27.50;25.50;;;;;;;;5160575;27;11647;-73
2022/03/17 14:03:32;;;;;;;;;18.00;17.50;;;;;;;;5159466;27;12487;-74
2022/03/17 14:06:04;;;;;;;;;23.00;20.50;;;;;;;;5162574;27;12246;-74
2022/03/17 14:08:30;;;;;;;;;25.00;23.75;;;;;;;;5162851;27;10457;-74
2022/03/17 14:10:56;;;;;;;;;26.00;23.50;;;;;;;;5144209;27;13804;-73
2022/03/17 14:13:22;;;;;;;;;25.00;23.00;;;;;;;;5162681;27;11469;-74
2022/03/17 14:15:51;;;;;;;;;22.75;21.00;;;;;;;;5162618;27;11602;-74
2022/03/17 14:18:17;;;;;;;;;22.75;20.75;;;;;;;;5143448;27;12529;-75
2022/03/17 14:20:42;;;;;;;;;29.00;25.25;;;;;;;;5161983;27;12257;-74
2022/03/17 14:25:51;;;;;;;;;24.25;19.50;;;;;;;;5160948;27;11437;-74
2022/03/17 14:28:17;;;;;;;;;21.25;17.00;;;;;;;;5143110;27;12049;-74
2022/03/17 14:30:42;;;;;;;;;20.75;16.25;;;;;;;;5142736;27;14735;-75
2022/03/17 14:33:07;;;;;;;;;23.25;19.50;;;;;;;;5161547;27;11505;-74
2022/03/17 14:35:33;;;;;;;;;24.00;21.75;;;;;;;;5161547;27;11451;-74
2022/03/17 14:37:59;;;;;;;;;20.25;20.00;;;;;;;;5142523;27;15035;-73
2022/03/17 14:40:25;;;;;;;;;24.75;23.00;;;;;;;;5162385;27;11707;-73
2022/03/17 14:42:50;;;;;;;;;25.75;22.75;;;;;;;;5161707;27;11566;-73
2022/03/17 14:45:16;;;;;;;;;27.75;27.00;;;;;;;;5161628;27;11396;-73
2022/03/17 14:47:41;;;;;;;;;28.50;25.25;;;;;;;;5161171;27;11592;-74